sensor_id;sensor_type;location;lat;lon;timestamp;temperature;humidity
32612;DHT22;19030;49.478;8.986;2023-07-30T00:00:35;18.60;99.90
32612;DHT22;19030;49.478;8.986;2023-07-30T00:02:36;18.60;99.90
32612;DHT22;19030;49.478;8.986;2023-07-30T00:04:36;18.60;99.90
32612;DHT22;19030;49.478;8.986;2023-07-30T00:06:37;18.60;99.90
32612;DHT22;19030;49.478;8.986;2023-07-30T00:08:37;18.60;99.90
32612;DHT22;19030;49.478;8.986;2023-07-30T00:10:38;18.60;99.90
32612;DHT22;19030;49.478;8.986;2023-07-30T00:12:38;18.60;99.90
32612;DHT22;19030;49.478;8.986;2023-07-30T00:14:40;18.60;99.90
32612;DHT22;19030;49.478;8.986;2023-07-30T00:16:41;18.60;99.90
32612;DHT22;19030;49.478;8.986;2023-07-30T00:18:41;18.60;99.90
32612;DHT22;19030;49.478;8.986;2023-07-30T00:20:43;18.60;99.90
32612;DHT22;19030;49.478;8.986;2023-07-30T00:22:44;18.60;99.90
32612;DHT22;19030;49.478;8.986;2023-07-30T00:24:44;18.60;99.90
32612;DHT22;19030;49.478;8.986;2023-07-30T00:26:45;18.50;99.90
32612;DHT22;19030;49.478;8.986;2023-07-30T00:28:45;18.60;99.90
32612;DHT22;19030;49.478;8.986;2023-07-30T00:30:46;18.50;99.90
32612;DHT22;19030;49.478;8.986;2023-07-30T00:32:47;18.50;99.90
32612;DHT22;19030;49.478;8.986;2023-07-30T00:34:48;18.60;99.90
32612;DHT22;19030;49.478;8.986;2023-07-30T00:36:48;18.60;99.90
32612;DHT22;19030;49.478;8.986;2023-07-30T00:38:49;18.60;99.90
32612;DHT22;19030;49.478;8.986;2023-07-30T00:40:50;18.50;99.90
32612;DHT22;19030;49.478;8.986;2023-07-30T00:42:50;18.60;99.90
32612;DHT22;19030;49.478;8.986;2023-07-30T00:44:51;18.60;99.90
32612;DHT22;19030;49.478;8.986;2023-07-30T00:46:51;18.60;99.90
32612;DHT22;19030;49.478;8.986;2023-07-30T00:48:53;18.60;99.90
32612;DHT22;19030;49.478;8.986;2023-07-30T00:50:54;18.60;99.90
32612;DHT22;19030;49.478;8.986;2023-07-30T00:52:56;18.60;99.90
32612;DHT22;19030;49.478;8.986;2023-07-30T00:54:57;18.60;99.90
32612;DHT22;19030;49.478;8.986;2023-07-30T00:56:59;18.60;99.90
32612;DHT22;19030;49.478;8.986;2023-07-30T00:59:01;18.60;99.90
32612;DHT22;19030;49.478;8.986;2023-07-30T01:01:01;18.60;99.90
32612;DHT22;19030;49.478;8.986;2023-07-30T01:03:02;18.60;99.90
32612;DHT22;19030;49.478;8.986;2023-07-30T01:05:03;18.60;99.90
32612;DHT22;19030;49.478;8.986;2023-07-30T01:07:04;18.60;99.90
32612;DHT22;19030;49.478;8.986;2023-07-30T01:09:06;18.60;99.90
32612;DHT22;19030;49.478;8.986;2023-07-30T01:11:07;18.60;99.90
32612;DHT22;19030;49.478;8.986;2023-07-30T01:13:09;18.50;99.90
32612;DHT22;19030;49.478;8.986;2023-07-30T01:15:11;18.50;99.90
32612;DHT22;19030;49.478;8.986;2023-07-30T01:17:12;18.50;99.90
32612;DHT22;19030;49.478;8.986;2023-07-30T01:19:13;18.50;99.90
32612;DHT22;19030;49.478;8.986;2023-07-30T01:21:14;18.40;99.90
32612;DHT22;19030;49.478;8.986;2023-07-30T01:23:15;18.40;99.90
32612;DHT22;19030;49.478;8.986;2023-07-30T01:25:17;18.40;99.90
32612;DHT22;19030;49.478;8.986;2023-07-30T01:27:29;18.40;99.90
32612;DHT22;19030;49.478;8.986;2023-07-30T01:29:41;18.40;99.90
32612;DHT22;19030;49.478;8.986;2023-07-30T01:31:43;18.40;99.90
32612;DHT22;19030;49.478;8.986;2023-07-30T01:33:48;18.30;99.90
32612;DHT22;19030;49.478;8.986;2023-07-30T01:35:51;18.40;99.90
32612;DHT22;19030;49.478;8.986;2023-07-30T01:37:53;18.30;99.90
32612;DHT22;19030;49.478;8.986;2023-07-30T01:39:55;18.30;99.90
32612;DHT22;19030;49.478;8.986;2023-07-30T01:41:56;18.30;99.90
32612;DHT22;19030;49.478;8.986;2023-07-30T01:43:57;18.30;99.90
32612;DHT22;19030;49.478;8.986;2023-07-30T01:45:58;18.30;99.90
32612;DHT22;19030;49.478;8.986;2023-07-30T01:47:58;18.30;99.90
32612;DHT22;19030;49.478;8.986;2023-07-30T01:49:59;18.30;99.90
32612;DHT22;19030;49.478;8.986;2023-07-30T01:52:00;18.30;99.90
32612;DHT22;19030;49.478;8.986;2023-07-30T01:54:01;18.30;99.90
32612;DHT22;19030;49.478;8.986;2023-07-30T01:56:01;18.30;99.90
32612;DHT22;19030;49.478;8.986;2023-07-30T01:58:02;18.30;99.90
32612;DHT22;19030;49.478;8.986;2023-07-30T02:00:04;18.30;99.90
32612;DHT22;19030;49.478;8.986;2023-07-30T02:02:05;18.30;99.90
32612;DHT22;19030;49.478;8.986;2023-07-30T02:04:07;18.30;99.90
32612;DHT22;19030;49.478;8.986;2023-07-30T02:06:08;18.40;99.90
32612;DHT22;19030;49.478;8.986;2023-07-30T02:08:08;18.30;99.90
32612;DHT22;19030;49.478;8.986;2023-07-30T02:10:09;18.30;99.90
32612;DHT22;19030;49.478;8.986;2023-07-30T02:12:09;18.40;99.90
32612;DHT22;19030;49.478;8.986;2023-07-30T02:14:11;18.30;99.90
32612;DHT22;19030;49.478;8.986;2023-07-30T02:16:12;18.40;99.90
32612;DHT22;19030;49.478;8.986;2023-07-30T02:18:12;18.30;99.90
32612;DHT22;19030;49.478;8.986;2023-07-30T02:20:13;18.30;99.90
32612;DHT22;19030;49.478;8.986;2023-07-30T02:22:14;18.30;99.90
32612;DHT22;19030;49.478;8.986;2023-07-30T02:24:15;18.30;99.90
32612;DHT22;19030;49.478;8.986;2023-07-30T02:26:16;18.40;99.90
32612;DHT22;19030;49.478;8.986;2023-07-30T02:28:17;18.30;99.90
32612;DHT22;19030;49.478;8.986;2023-07-30T02:30:17;18.40;99.90
32612;DHT22;19030;49.478;8.986;2023-07-30T02:32:18;18.40;99.90
32612;DHT22;19030;49.478;8.986;2023-07-30T02:34:19;18.30;99.90
32612;DHT22;19030;49.478;8.986;2023-07-30T02:36:19;18.30;99.90
32612;DHT22;19030;49.478;8.986;2023-07-30T02:38:20;18.30;99.90
32612;DHT22;19030;49.478;8.986;2023-07-30T02:40:21;18.30;99.90
32612;DHT22;19030;49.478;8.986;2023-07-30T02:42:22;18.30;99.90
32612;DHT22;19030;49.478;8.986;2023-07-30T02:44:22;18.30;99.90
32612;DHT22;19030;49.478;8.986;2023-07-30T02:46:23;18.30;99.90
32612;DHT22;19030;49.478;8.986;2023-07-30T02:48:23;18.30;99.90
32612;DHT22;19030;49.478;8.986;2023-07-30T02:50:24;18.30;99.90
32612;DHT22;19030;49.478;8.986;2023-07-30T02:52:24;18.30;99.90
32612;DHT22;19030;49.478;8.986;2023-07-30T02:54:25;18.30;99.90
32612;DHT22;19030;49.478;8.986;2023-07-30T02:56:25;18.30;99.90
32612;DHT22;19030;49.478;8.986;2023-07-30T02:58:26;18.30;99.90
32612;DHT22;19030;49.478;8.986;2023-07-30T03:00:27;18.30;99.90
32612;DHT22;19030;49.478;8.986;2023-07-30T03:02:27;18.30;99.90
32612;DHT22;19030;49.478;8.986;2023-07-30T03:04:28;18.30;99.90
32612;DHT22;19030;49.478;8.986;2023-07-30T03:06:29;18.30;99.90
32612;DHT22;19030;49.478;8.986;2023-07-30T03:08:29;18.30;99.90
32612;DHT22;19030;49.478;8.986;2023-07-30T03:10:30;18.30;99.90
32612;DHT22;19030;49.478;8.986;2023-07-30T03:12:30;18.20;99.90
32612;DHT22;19030;49.478;8.986;2023-07-30T03:14:31;18.20;99.90
32612;DHT22;19030;49.478;8.986;2023-07-30T03:16:32;18.20;99.90
32612;DHT22;19030;49.478;8.986;2023-07-30T03:18:33;18.20;99.90
32612;DHT22;19030;49.478;8.986;2023-07-30T03:20:34;18.20;99.90
32612;DHT22;19030;49.478;8.986;2023-07-30T03:22:34;18.20;99.90
32612;DHT22;19030;49.478;8.986;2023-07-30T03:24:35;18.20;99.90
32612;DHT22;19030;49.478;8.986;2023-07-30T03:26:36;18.20;99.90
32612;DHT22;19030;49.478;8.986;2023-07-30T03:28:37;18.20;99.90
32612;DHT22;19030;49.478;8.986;2023-07-30T03:30:37;18.20;99.90
32612;DHT22;19030;49.478;8.986;2023-07-30T03:32:39;18.20;99.90
32612;DHT22;19030;49.478;8.986;2023-07-30T03:34:41;18.20;99.90
32612;DHT22;19030;49.478;8.986;2023-07-30T03:36:41;18.20;99.90
32612;DHT22;19030;49.478;8.986;2023-07-30T03:38:42;18.20;99.90
32612;DHT22;19030;49.478;8.986;2023-07-30T03:40:43;18.20;99.90
32612;DHT22;19030;49.478;8.986;2023-07-30T03:42:44;18.20;99.90
32612;DHT22;19030;49.478;8.986;2023-07-30T03:44:45;18.20;99.90
32612;DHT22;19030;49.478;8.986;2023-07-30T03:46:46;18.20;99.90
32612;DHT22;19030;49.478;8.986;2023-07-30T03:48:46;18.20;99.90
32612;DHT22;19030;49.478;8.986;2023-07-30T03:50:47;18.20;99.90
32612;DHT22;19030;49.478;8.986;2023-07-30T03:52:47;18.20;99.90
32612;DHT22;19030;49.478;8.986;2023-07-30T03:54:48;18.20;99.90
32612;DHT22;19030;49.478;8.986;2023-07-30T03:56:49;18.20;99.90
32612;DHT22;19030;49.478;8.986;2023-07-30T03:58:49;18.20;99.90
32612;DHT22;19030;49.478;8.986;2023-07-30T04:00:50;18.20;99.90
32612;DHT22;19030;49.478;8.986;2023-07-30T04:02:50;18.20;99.90
32612;DHT22;19030;49.478;8.986;2023-07-30T04:04:51;18.20;99.90
32612;DHT22;19030;49.478;8.986;2023-07-30T04:06:52;18.20;99.90
32612;DHT22;19030;49.478;8.986;2023-07-30T04:08:53;18.20;99.90
32612;DHT22;19030;49.478;8.986;2023-07-30T04:10:53;18.20;99.90
32612;DHT22;19030;49.478;8.986;2023-07-30T04:12:54;18.20;99.90
32612;DHT22;19030;49.478;8.986;2023-07-30T04:14:54;18.20;99.90
32612;DHT22;19030;49.478;8.986;2023-07-30T04:16:55;18.20;99.90
32612;DHT22;19030;49.478;8.986;2023-07-30T04:18:55;18.20;99.90
32612;DHT22;19030;49.478;8.986;2023-07-30T04:20:56;18.20;99.90
32612;DHT22;19030;49.478;8.986;2023-07-30T04:22:57;18.20;99.90
32612;DHT22;19030;49.478;8.986;2023-07-30T04:24:57;18.20;99.90
32612;DHT22;19030;49.478;8.986;2023-07-30T04:26:58;18.20;99.90
32612;DHT22;19030;49.478;8.986;2023-07-30T04:28:58;18.30;99.90
32612;DHT22;19030;49.478;8.986;2023-07-30T04:30:59;18.20;99.90
32612;DHT22;19030;49.478;8.986;2023-07-30T04:32:59;18.20;99.90
32612;DHT22;19030;49.478;8.986;2023-07-30T04:35:01;18.20;99.90
32612;DHT22;19030;49.478;8.986;2023-07-30T04:37:03;18.20;99.90
32612;DHT22;19030;49.478;8.986;2023-07-30T04:39:04;18.20;99.90
32612;DHT22;19030;49.478;8.986;2023-07-30T04:41:07;18.20;99.90
32612;DHT22;19030;49.478;8.986;2023-07-30T04:43:14;18.20;99.90
32612;DHT22;19030;49.478;8.986;2023-07-30T04:45:16;18.20;99.90
32612;DHT22;19030;49.478;8.986;2023-07-30T04:47:20;18.20;99.90
32612;DHT22;19030;49.478;8.986;2023-07-30T04:49:21;18.30;99.90
32612;DHT22;19030;49.478;8.986;2023-07-30T04:51:21;18.30;99.90
32612;DHT22;19030;49.478;8.986;2023-07-30T04:53:22;18.30;99.90
32612;DHT22;19030;49.478;8.986;2023-07-30T04:55:23;18.30;99.90
32612;DHT22;19030;49.478;8.986;2023-07-30T04:57:24;18.40;99.90
32612;DHT22;19030;49.478;8.986;2023-07-30T04:59:24;18.40;99.90
32612;DHT22;19030;49.478;8.986;2023-07-30T05:01:25;18.40;99.90
32612;DHT22;19030;49.478;8.986;2023-07-30T05:03:25;18.40;99.90
32612;DHT22;19030;49.478;8.986;2023-07-30T05:05:26;18.40;99.90
32612;DHT22;19030;49.478;8.986;2023-07-30T05:07:27;18.50;99.90
32612;DHT22;19030;49.478;8.986;2023-07-30T05:09:27;18.50;99.90
32612;DHT22;19030;49.478;8.986;2023-07-30T05:11:28;18.50;99.90
32612;DHT22;19030;49.478;8.986;2023-07-30T05:13:28;18.60;99.90
32612;DHT22;19030;49.478;8.986;2023-07-30T05:15:29;18.60;99.90
32612;DHT22;19030;49.478;8.986;2023-07-30T05:17:29;18.70;99.90
32612;DHT22;19030;49.478;8.986;2023-07-30T05:19:30;18.70;99.90
32612;DHT22;19030;49.478;8.986;2023-07-30T05:21:32;18.70;99.90
32612;DHT22;19030;49.478;8.986;2023-07-30T05:23:32;18.70;99.90
32612;DHT22;19030;49.478;8.986;2023-07-30T05:25:33;18.70;99.90
32612;DHT22;19030;49.478;8.986;2023-07-30T05:27:35;18.70;99.90
32612;DHT22;19030;49.478;8.986;2023-07-30T05:29:35;18.70;99.90
32612;DHT22;19030;49.478;8.986;2023-07-30T05:31:36;18.70;99.90
32612;DHT22;19030;49.478;8.986;2023-07-30T05:33:37;18.70;99.90
32612;DHT22;19030;49.478;8.986;2023-07-30T05:35:37;18.70;99.90
32612;DHT22;19030;49.478;8.986;2023-07-30T05:37:38;18.80;99.90
32612;DHT22;19030;49.478;8.986;2023-07-30T05:39:38;18.80;99.90
32612;DHT22;19030;49.478;8.986;2023-07-30T05:41:39;18.80;99.90
32612;DHT22;19030;49.478;8.986;2023-07-30T05:43:39;18.80;99.90
32612;DHT22;19030;49.478;8.986;2023-07-30T05:45:40;18.90;99.90
32612;DHT22;19030;49.478;8.986;2023-07-30T05:47:41;18.90;99.90
32612;DHT22;19030;49.478;8.986;2023-07-30T05:49:41;18.90;99.90
32612;DHT22;19030;49.478;8.986;2023-07-30T05:51:42;19.00;99.90
32612;DHT22;19030;49.478;8.986;2023-07-30T05:53:42;19.10;99.90
32612;DHT22;19030;49.478;8.986;2023-07-30T05:55:43;19.20;99.90
32612;DHT22;19030;49.478;8.986;2023-07-30T05:57:43;19.30;99.90
32612;DHT22;19030;49.478;8.986;2023-07-30T05:59:44;19.50;99.90
32612;DHT22;19030;49.478;8.986;2023-07-30T06:01:44;19.60;99.90
32612;DHT22;19030;49.478;8.986;2023-07-30T06:03:45;19.70;99.90
32612;DHT22;19030;49.478;8.986;2023-07-30T06:05:46;19.70;99.90
32612;DHT22;19030;49.478;8.986;2023-07-30T06:07:46;19.70;99.90
32612;DHT22;19030;49.478;8.986;2023-07-30T06:09:47;19.60;99.90
32612;DHT22;19030;49.478;8.986;2023-07-30T06:11:47;19.60;99.90
32612;DHT22;19030;49.478;8.986;2023-07-30T06:13:48;19.70;99.90
32612;DHT22;19030;49.478;8.986;2023-07-30T06:15:48;19.80;99.90
32612;DHT22;19030;49.478;8.986;2023-07-30T06:17:49;19.80;99.90
32612;DHT22;19030;49.478;8.986;2023-07-30T06:19:49;19.80;99.90
32612;DHT22;19030;49.478;8.986;2023-07-30T06:21:50;19.90;99.90
32612;DHT22;19030;49.478;8.986;2023-07-30T06:23:51;20.00;99.90
32612;DHT22;19030;49.478;8.986;2023-07-30T06:25:52;20.00;99.90
32612;DHT22;19030;49.478;8.986;2023-07-30T06:27:52;20.00;99.90
32612;DHT22;19030;49.478;8.986;2023-07-30T06:29:53;20.00;99.90
32612;DHT22;19030;49.478;8.986;2023-07-30T06:31:53;20.10;99.90
32612;DHT22;19030;49.478;8.986;2023-07-30T06:33:54;20.30;99.90
32612;DHT22;19030;49.478;8.986;2023-07-30T06:35:55;20.50;99.90
32612;DHT22;19030;49.478;8.986;2023-07-30T06:37:55;20.70;99.90
32612;DHT22;19030;49.478;8.986;2023-07-30T06:39:56;21.10;99.90
32612;DHT22;19030;49.478;8.986;2023-07-30T06:41:56;21.30;99.90
32612;DHT22;19030;49.478;8.986;2023-07-30T06:43:57;21.50;99.90
32612;DHT22;19030;49.478;8.986;2023-07-30T06:45:58;21.60;99.90
32612;DHT22;19030;49.478;8.986;2023-07-30T06:47:59;21.80;99.90
32612;DHT22;19030;49.478;8.986;2023-07-30T06:49:59;22.10;99.90
32612;DHT22;19030;49.478;8.986;2023-07-30T06:52:00;22.70;99.90
32612;DHT22;19030;49.478;8.986;2023-07-30T06:54:01;23.10;99.90
32612;DHT22;19030;49.478;8.986;2023-07-30T06:56:01;23.50;99.90
32612;DHT22;19030;49.478;8.986;2023-07-30T06:58:02;23.80;99.90
32612;DHT22;19030;49.478;8.986;2023-07-30T07:00:03;24.40;99.90
32612;DHT22;19030;49.478;8.986;2023-07-30T07:02:05;25.00;99.90
32612;DHT22;19030;49.478;8.986;2023-07-30T07:04:06;25.50;99.90
32612;DHT22;19030;49.478;8.986;2023-07-30T07:06:06;25.60;99.90
32612;DHT22;19030;49.478;8.986;2023-07-30T07:08:07;25.50;99.90
32612;DHT22;19030;49.478;8.986;2023-07-30T07:10:08;25.50;99.90
32612;DHT22;19030;49.478;8.986;2023-07-30T07:12:11;25.70;99.90
32612;DHT22;19030;49.478;8.986;2023-07-30T07:14:11;25.90;99.90
32612;DHT22;19030;49.478;8.986;2023-07-30T07:16:12;26.10;99.90
32612;DHT22;19030;49.478;8.986;2023-07-30T07:18:12;26.20;99.90
32612;DHT22;19030;49.478;8.986;2023-07-30T07:20:13;26.30;99.90
32612;DHT22;19030;49.478;8.986;2023-07-30T07:22:13;26.20;99.90
32612;DHT22;19030;49.478;8.986;2023-07-30T07:24:14;26.00;99.90
32612;DHT22;19030;49.478;8.986;2023-07-30T07:26:15;25.50;99.90
32612;DHT22;19030;49.478;8.986;2023-07-30T07:28:16;24.70;99.90
32612;DHT22;19030;49.478;8.986;2023-07-30T07:30:17;24.10;99.90
32612;DHT22;19030;49.478;8.986;2023-07-30T07:32:18;23.60;99.90
32612;DHT22;19030;49.478;8.986;2023-07-30T07:34:19;23.00;99.90
32612;DHT22;19030;49.478;8.986;2023-07-30T07:36:20;22.50;99.90
32612;DHT22;19030;49.478;8.986;2023-07-30T07:38:21;22.20;99.90
32612;DHT22;19030;49.478;8.986;2023-07-30T07:40:21;22.00;99.90
32612;DHT22;19030;49.478;8.986;2023-07-30T07:42:22;21.90;99.90
32612;DHT22;19030;49.478;8.986;2023-07-30T07:44:23;21.80;99.90
32612;DHT22;19030;49.478;8.986;2023-07-30T07:46:23;21.70;99.90
32612;DHT22;19030;49.478;8.986;2023-07-30T07:48:24;21.60;99.90
32612;DHT22;19030;49.478;8.986;2023-07-30T07:50:25;21.50;99.90
32612;DHT22;19030;49.478;8.986;2023-07-30T07:52:26;21.40;99.90
32612;DHT22;19030;49.478;8.986;2023-07-30T07:54:26;21.30;99.90
32612;DHT22;19030;49.478;8.986;2023-07-30T07:56:27;21.30;99.90
32612;DHT22;19030;49.478;8.986;2023-07-30T07:58:27;21.20;99.90
32612;DHT22;19030;49.478;8.986;2023-07-30T08:00:29;21.10;99.90
32612;DHT22;19030;49.478;8.986;2023-07-30T08:02:29;21.20;99.90
32612;DHT22;19030;49.478;8.986;2023-07-30T08:04:30;21.30;99.90
32612;DHT22;19030;49.478;8.986;2023-07-30T08:06:33;21.30;99.90
32612;DHT22;19030;49.478;8.986;2023-07-30T08:08:34;21.40;99.90
32612;DHT22;19030;49.478;8.986;2023-07-30T08:10:38;21.30;99.90
32612;DHT22;19030;49.478;8.986;2023-07-30T08:12:39;21.40;99.90
32612;DHT22;19030;49.478;8.986;2023-07-30T08:14:40;21.40;99.90
32612;DHT22;19030;49.478;8.986;2023-07-30T08:16:41;21.50;99.90
32612;DHT22;19030;49.478;8.986;2023-07-30T08:18:41;21.40;99.90
32612;DHT22;19030;49.478;8.986;2023-07-30T08:20:42;21.30;99.90
32612;DHT22;19030;49.478;8.986;2023-07-30T08:22:42;21.10;99.90
32612;DHT22;19030;49.478;8.986;2023-07-30T08:24:43;21.00;99.90
32612;DHT22;19030;49.478;8.986;2023-07-30T08:26:43;21.00;99.90
32612;DHT22;19030;49.478;8.986;2023-07-30T08:28:44;21.00;99.90
32612;DHT22;19030;49.478;8.986;2023-07-30T08:30:45;21.20;99.90
32612;DHT22;19030;49.478;8.986;2023-07-30T08:32:45;21.70;99.90
32612;DHT22;19030;49.478;8.986;2023-07-30T08:34:47;22.30;99.90
32612;DHT22;19030;49.478;8.986;2023-07-30T08:36:47;22.50;99.90
32612;DHT22;19030;49.478;8.986;2023-07-30T08:38:48;22.50;99.90
32612;DHT22;19030;49.478;8.986;2023-07-30T08:40:48;22.50;99.90
32612;DHT22;19030;49.478;8.986;2023-07-30T08:42:50;22.50;99.90
32612;DHT22;19030;49.478;8.986;2023-07-30T08:44:51;22.30;99.90
32612;DHT22;19030;49.478;8.986;2023-07-30T08:46:52;22.20;99.90
32612;DHT22;19030;49.478;8.986;2023-07-30T08:48:52;22.10;99.90
32612;DHT22;19030;49.478;8.986;2023-07-30T08:50:57;22.20;99.90
32612;DHT22;19030;49.478;8.986;2023-07-30T08:52:59;22.30;99.90
32612;DHT22;19030;49.478;8.986;2023-07-30T08:55:02;22.50;99.90
32612;DHT22;19030;49.478;8.986;2023-07-30T08:57:04;22.50;99.90
32612;DHT22;19030;49.478;8.986;2023-07-30T08:59:05;22.30;99.90
32612;DHT22;19030;49.478;8.986;2023-07-30T09:01:09;22.20;99.90
32612;DHT22;19030;49.478;8.986;2023-07-30T09:03:15;22.20;99.90
32612;DHT22;19030;49.478;8.986;2023-07-30T09:05:18;22.50;99.90
32612;DHT22;19030;49.478;8.986;2023-07-30T09:07:19;23.40;99.90
32612;DHT22;19030;49.478;8.986;2023-07-30T09:09:20;24.20;99.90
32612;DHT22;19030;49.478;8.986;2023-07-30T09:11:25;24.70;99.90
32612;DHT22;19030;49.478;8.986;2023-07-30T09:13:25;25.10;99.90
32612;DHT22;19030;49.478;8.986;2023-07-30T09:15:33;25.20;99.90
32612;DHT22;19030;49.478;8.986;2023-07-30T09:17:35;24.60;99.90
32612;DHT22;19030;49.478;8.986;2023-07-30T09:19:35;24.80;99.90
32612;DHT22;19030;49.478;8.986;2023-07-30T09:21:36;25.30;99.90
32612;DHT22;19030;49.478;8.986;2023-07-30T09:23:44;26.00;99.90
32612;DHT22;19030;49.478;8.986;2023-07-30T09:25:47;26.00;99.90
32612;DHT22;19030;49.478;8.986;2023-07-30T09:27:50;25.90;99.90
32612;DHT22;19030;49.478;8.986;2023-07-30T09:29:53;26.50;99.90
32612;DHT22;19030;49.478;8.986;2023-07-30T09:31:54;26.90;99.90
32612;DHT22;19030;49.478;8.986;2023-07-30T09:33:55;26.90;99.90
32612;DHT22;19030;49.478;8.986;2023-07-30T09:35:56;26.40;99.90
32612;DHT22;19030;49.478;8.986;2023-07-30T09:38:03;26.00;99.90
32612;DHT22;19030;49.478;8.986;2023-07-30T09:40:10;25.60;99.90
32612;DHT22;19030;49.478;8.986;2023-07-30T09:42:10;25.30;99.90
32612;DHT22;19030;49.478;8.986;2023-07-30T09:44:12;25.10;99.90
32612;DHT22;19030;49.478;8.986;2023-07-30T09:46:13;24.90;99.90
32612;DHT22;19030;49.478;8.986;2023-07-30T09:48:14;24.80;99.90
32612;DHT22;19030;49.478;8.986;2023-07-30T09:50:15;25.00;99.90
32612;DHT22;19030;49.478;8.986;2023-07-30T09:52:16;25.10;99.90
32612;DHT22;19030;49.478;8.986;2023-07-30T09:54:17;25.00;99.90
32612;DHT22;19030;49.478;8.986;2023-07-30T09:56:17;24.70;99.90
32612;DHT22;19030;49.478;8.986;2023-07-30T09:58:18;24.70;99.90
32612;DHT22;19030;49.478;8.986;2023-07-30T10:00:18;24.50;99.90
32612;DHT22;19030;49.478;8.986;2023-07-30T10:02:19;24.70;99.90
32612;DHT22;19030;49.478;8.986;2023-07-30T10:04:20;24.50;99.90
32612;DHT22;19030;49.478;8.986;2023-07-30T10:06:21;24.60;99.90
32612;DHT22;19030;49.478;8.986;2023-07-30T10:08:25;25.00;99.50
32612;DHT22;19030;49.478;8.986;2023-07-30T10:10:29;25.50;98.30
32612;DHT22;19030;49.478;8.986;2023-07-30T10:12:32;25.40;96.60
32612;DHT22;19030;49.478;8.986;2023-07-30T10:14:34;25.00;97.60
32612;DHT22;19030;49.478;8.986;2023-07-30T10:16:35;24.50;98.00
32612;DHT22;19030;49.478;8.986;2023-07-30T10:18:40;24.30;99.00
32612;DHT22;19030;49.478;8.986;2023-07-30T10:20:52;24.10;99.30
32612;DHT22;19030;49.478;8.986;2023-07-30T10:22:54;24.00;99.60
32612;DHT22;19030;49.478;8.986;2023-07-30T10:27:05;25.30;97.30
32612;DHT22;19030;49.478;8.986;2023-07-30T10:29:10;25.40;96.70
32612;DHT22;19030;49.478;8.986;2023-07-30T10:31:11;26.00;95.90
32612;DHT22;19030;49.478;8.986;2023-07-30T10:33:14;26.60;93.50
32612;DHT22;19030;49.478;8.986;2023-07-30T10:37:35;27.10;91.70
32612;DHT22;19030;49.478;8.986;2023-07-30T10:39:36;27.10;90.90
32612;DHT22;19030;49.478;8.986;2023-07-30T10:41:37;27.00;91.10
32612;DHT22;19030;49.478;8.986;2023-07-30T10:43:43;26.80;91.20
32612;DHT22;19030;49.478;8.986;2023-07-30T10:45:50;26.00;91.70
32612;DHT22;19030;49.478;8.986;2023-07-30T10:47:51;25.30;94.00
32612;DHT22;19030;49.478;8.986;2023-07-30T10:49:52;24.90;94.70
32612;DHT22;19030;49.478;8.986;2023-07-30T10:51:55;24.40;95.70
32612;DHT22;19030;49.478;8.986;2023-07-30T10:53:57;24.10;97.10
32612;DHT22;19030;49.478;8.986;2023-07-30T10:56:01;24.70;97.20
32612;DHT22;19030;49.478;8.986;2023-07-30T10:58:03;25.40;95.20
32612;DHT22;19030;49.478;8.986;2023-07-30T11:00:05;25.80;94.30
32612;DHT22;19030;49.478;8.986;2023-07-30T11:02:06;25.80;93.70
32612;DHT22;19030;49.478;8.986;2023-07-30T11:04:14;25.30;93.90
32612;DHT22;19030;49.478;8.986;2023-07-30T11:06:24;25.20;95.20
32612;DHT22;19030;49.478;8.986;2023-07-30T11:08:42;24.80;93.60
32612;DHT22;19030;49.478;8.986;2023-07-30T11:10:45;24.30;95.20
32612;DHT22;19030;49.478;8.986;2023-07-30T11:12:48;24.70;94.90
32612;DHT22;19030;49.478;8.986;2023-07-30T11:14:51;25.60;94.80
32612;DHT22;19030;49.478;8.986;2023-07-30T11:16:53;26.40;91.90
32612;DHT22;19030;49.478;8.986;2023-07-30T11:18:54;26.30;89.90
32612;DHT22;19030;49.478;8.986;2023-07-30T11:21:06;25.80;90.00
32612;DHT22;19030;49.478;8.986;2023-07-30T11:23:22;25.50;89.00
32612;DHT22;19030;49.478;8.986;2023-07-30T11:25:23;25.60;90.20
32612;DHT22;19030;49.478;8.986;2023-07-30T11:27:24;26.20;88.90
32612;DHT22;19030;49.478;8.986;2023-07-30T11:29:25;26.70;81.00
32612;DHT22;19030;49.478;8.986;2023-07-30T11:31:25;26.90;82.70
32612;DHT22;19030;49.478;8.986;2023-07-30T11:33:28;27.60;79.70
32612;DHT22;19030;49.478;8.986;2023-07-30T11:35:29;28.30;80.90
32612;DHT22;19030;49.478;8.986;2023-07-30T11:37:30;28.90;74.40
32612;DHT22;19030;49.478;8.986;2023-07-30T11:39:30;29.60;73.30
32612;DHT22;19030;49.478;8.986;2023-07-30T11:41:31;29.80;65.40
32612;DHT22;19030;49.478;8.986;2023-07-30T11:43:32;29.70;62.00
32612;DHT22;19030;49.478;8.986;2023-07-30T11:45:33;29.00;61.20
32612;DHT22;19030;49.478;8.986;2023-07-30T11:47:33;28.30;66.40
32612;DHT22;19030;49.478;8.986;2023-07-30T11:49:34;28.30;67.50
32612;DHT22;19030;49.478;8.986;2023-07-30T11:51:35;28.60;63.80
32612;DHT22;19030;49.478;8.986;2023-07-30T11:53:50;28.70;62.80
32612;DHT22;19030;49.478;8.986;2023-07-30T11:55:50;28.50;64.70
32612;DHT22;19030;49.478;8.986;2023-07-30T11:57:51;28.40;62.40
32612;DHT22;19030;49.478;8.986;2023-07-30T11:59:52;28.10;65.00
32612;DHT22;19030;49.478;8.986;2023-07-30T12:01:53;27.70;65.60
32612;DHT22;19030;49.478;8.986;2023-07-30T12:03:57;27.00;65.50
32612;DHT22;19030;49.478;8.986;2023-07-30T12:05:58;26.40;66.20
32612;DHT22;19030;49.478;8.986;2023-07-30T12:08:05;26.50;68.40
32612;DHT22;19030;49.478;8.986;2023-07-30T12:10:11;26.80;67.70
32612;DHT22;19030;49.478;8.986;2023-07-30T12:12:12;27.00;67.30
32612;DHT22;19030;49.478;8.986;2023-07-30T12:14:13;27.50;65.80
32612;DHT22;19030;49.478;8.986;2023-07-30T12:16:16;27.60;66.00
32612;DHT22;19030;49.478;8.986;2023-07-30T12:18:17;27.50;64.50
32612;DHT22;19030;49.478;8.986;2023-07-30T12:20:17;27.50;64.90
32612;DHT22;19030;49.478;8.986;2023-07-30T12:22:18;27.70;66.80
32612;DHT22;19030;49.478;8.986;2023-07-30T12:24:18;28.10;63.60
32612;DHT22;19030;49.478;8.986;2023-07-30T12:26:19;28.20;61.00
32612;DHT22;19030;49.478;8.986;2023-07-30T12:28:20;28.50;60.60
32612;DHT22;19030;49.478;8.986;2023-07-30T12:30:21;28.30;58.90
32612;DHT22;19030;49.478;8.986;2023-07-30T12:32:21;28.10;62.30
32612;DHT22;19030;49.478;8.986;2023-07-30T12:34:23;27.90;59.60
32612;DHT22;19030;49.478;8.986;2023-07-30T12:36:24;27.60;60.30
32612;DHT22;19030;49.478;8.986;2023-07-30T12:38:24;27.30;63.30
32612;DHT22;19030;49.478;8.986;2023-07-30T12:40:25;26.80;60.20
32612;DHT22;19030;49.478;8.986;2023-07-30T12:42:26;26.50;64.30
32612;DHT22;19030;49.478;8.986;2023-07-30T12:44:26;26.80;64.20
32612;DHT22;19030;49.478;8.986;2023-07-30T12:46:27;27.40;63.70
32612;DHT22;19030;49.478;8.986;2023-07-30T12:48:30;27.70;60.10
32612;DHT22;19030;49.478;8.986;2023-07-30T12:50:30;27.50;58.80